Time;durP1;ratioP1;P1;durP2;ratioP2;P2;SDS_P1;SDS_P2;PMS_P1;PMS_P2;Temp;Humidity;BMP_temperature;BMP_pressure;BME280_temperature;BME280_humidity;BME280_pressure;Samples;Min_cycle;Max_cycle;Signal;HPM_P1;HPM_P2
2022/10/29 00:02:24;;;;;;;22.73;13.57;;;;;;;28.41;63.45;100674.34;5031471;28;66314;-40
2022/10/29 00:04:55;;;;;;;26.17;13.82;;;;;;;28.47;63.43;100686.22;5055792;28;70027;-37
2022/10/29 00:07:25;;;;;;;19.00;13.60;;;;;;;28.57;63.98;100692.03;5042662;28;65846;-36
2022/10/29 00:09:57;;;;;;;18.38;13.30;;;;;;;28.61;62.68;100698.69;5031244;28;71292;-37
2022/10/29 00:12:28;;;;;;;29.10;15.15;;;;;;;28.49;63.82;100684.13;5043185;28;66398;-36
2022/10/29 00:14:59;;;;;;;18.45;14.57;;;;;;;28.64;63.96;100708.19;5043896;28;70160;-37
2022/10/29 00:17:30;;;;;;;23.10;14.13;;;;;;;28.67;63.28;100703.22;5042266;28;65499;-37
2022/10/29 00:20:01;;;;;;;28.92;15.00;;;;;;;28.66;63.72;100712.34;5040584;28;69195;-38
2022/10/29 00:22:33;;;;;;;26.77;14.85;;;;;;;28.64;63.99;100700.97;5040130;28;66151;-38
2022/10/29 00:25:05;;;;;;;26.17;13.30;;;;;;;28.68;63.86;100715.69;5041953;28;70248;-37
2022/10/29 00:27:35;;;;;;;25.33;13.37;;;;;;;28.76;64.21;100738.94;5043693;28;66178;-37
2022/10/29 00:30:07;;;;;;;21.40;13.07;;;;;;;28.82;63.02;100738.09;5044565;28;70137;-38
2022/10/29 00:32:38;;;;;;;19.88;12.65;;;;;;;28.78;64.05;100742.25;5044123;28;65218;-37
2022/10/29 00:35:09;;;;;;;18.20;13.18;;;;;;;28.70;63.73;100728.97;5041733;28;69467;-37
2022/10/29 00:37:40;;;;;;;19.33;12.45;;;;;;;28.81;64.55;100741.84;5041857;28;65682;-37
2022/10/29 00:40:11;;;;;;;17.38;11.82;;;;;;;28.88;65.65;100745.34;5059754;28;70232;-40
2022/10/29 00:42:42;;;;;;;18.27;12.00;;;;;;;28.98;64.17;100746.81;5050875;28;66480;-38
2022/10/29 00:45:19;;;;;;;18.40;11.00;;;;;;;28.50;65.91;100659.66;5035159;28;69203;-38
2022/10/29 00:47:52;;;;;;;21.20;10.48;;;;;;;28.54;66.09;100653.84;5025603;28;67219;-37
2022/10/29 00:50:24;;;;;;;21.88;11.48;;;;;;;29.05;65.40;100736.81;5040745;28;69823;-39
2022/10/29 00:52:56;;;;;;;33.72;15.20;;;;;;;28.92;64.50;100727.69;5039921;28;66325;-35
2022/10/29 00:55:27;;;;;;;25.80;14.60;;;;;;;28.86;63.25;100733.94;5042249;28;69324;-36
2022/10/29 00:57:59;;;;;;;42.60;16.90;;;;;;;28.80;63.05;100728.53;5037735;28;67455;-37
2022/10/29 01:00:30;;;;;;;33.88;15.85;;;;;;;28.76;63.58;100733.53;5031189;28;69712;-38
2022/10/29 01:03:01;;;;;;;30.92;15.90;;;;;;;28.71;63.17;100741.44;5039595;28;67020;-35
2022/10/29 01:05:34;;;;;;;27.95;17.08;;;;;;;28.33;62.82;100677.25;5036038;28;69538;-37
2022/10/29 01:08:05;;;;;;;29.73;15.35;;;;;;;28.67;63.65;100742.91;5039204;28;66382;-37
2022/10/29 01:10:40;;;;;;;27.80;16.00;;;;;;;28.61;63.41;100743.69;5031233;28;69365;-37
2022/10/29 01:13:21;;;;;;;27.20;15.80;;;;;;;28.58;63.40;100750.34;5039892;28;66493;-37
2022/10/29 01:16:07;;;;;;;32.42;14.38;;;;;;;28.01;62.54;100655.47;5040911;28;70664;-37
2022/10/29 01:19:08;;;;;;;32.55;16.23;;;;;;;28.06;63.48;100668.34;5031941;28;66145;-36
2022/10/29 01:21:48;;;;;;;34.28;15.90;;;;;;;28.61;63.47;100746.41;5028870;28;69874;-36
2022/10/29 01:24:51;;;;;;;37.35;17.13;;;;;;;28.51;63.37;100742.25;5041392;28;66407;-36
2022/10/29 01:27:43;;;;;;;24.90;15.57;;;;;;;28.61;63.37;100751.78;5022385;28;70086;-37
2022/10/29 01:30:23;;;;;;;33.00;15.10;;;;;;;28.62;63.71;100748.91;5039418;28;66693;-37
2022/10/29 01:33:16;;;;;;;26.65;14.85;;;;;;;28.57;64.03;100745.16;5040147;28;69511;-35
2022/10/29 01:36:01;;;;;;;27.80;15.65;;;;;;;28.20;64.23;100671.88;5034272;28;66922;-36
2022/10/29 01:38:58;;;;;;;28.27;16.67;;;;;;;28.67;63.40;100746.41;5038739;28;70497;-36
2022/10/29 01:41:38;;;;;;;34.47;16.92;;;;;;;28.74;64.02;100763.41;5037818;28;66790;-36
2022/10/29 01:44:46;;;;;;;32.47;17.33;;;;;;;28.70;64.06;100766.75;5039073;28;70863;-37
2022/10/29 01:47:23;;;;;;;36.10;17.80;;;;;;;28.26;63.83;100676.44;5036014;28;67484;-37
2022/10/29 01:50:02;;;;;;;32.28;16.85;;;;;;;28.18;63.79;100660.47;5035671;28;69039;-37
2022/10/29 01:52:35;;;;;;;42.63;17.70;;;;;;;28.29;63.67;100678.72;5033888;28;66736;-37
2022/10/29 01:55:07;;;;;;;32.33;17.17;;;;;;;28.85;63.87;100764.66;5038252;28;69602;-37
2022/10/29 01:57:38;;;;;;;42.28;19.23;;;;;;;28.88;63.69;100774.22;5039176;28;65828;-37
2022/10/29 02:00:14;;;;;;;35.35;17.52;;;;;;;28.90;64.28;100775.66;5033454;28;69450;-36
2022/10/29 02:03:08;;;;;;;24.00;15.60;;;;;;;28.88;63.05;100737.25;5035897;28;66723;-36
2022/10/29 02:06:06;;;;;;;24.40;14.73;;;;;;;29.11;62.09;100762.97;5052367;28;69855;-37
2022/10/29 02:09:02;;;;;;;23.95;13.30;;;;;;;28.22;62.69;100614.00;5037540;28;65692;-37
2022/10/29 02:11:45;;;;;;;20.80;13.25;;;;;;;29.27;62.37;100751.72;5035652;28;70206;-37
2022/10/29 02:14:29;;;;;;;27.77;13.60;;;;;;;28.90;62.36;100689.28;5039637;28;65623;-37
2022/10/29 02:17:02;;;;;;;20.60;13.35;;;;;;;28.88;62.34;100680.53;5039769;28;70270;-37
2022/10/29 02:19:35;;;;;;;20.27;13.15;;;;;;;29.48;62.06;100782.22;5036188;28;66071;-37
2022/10/29 02:22:27;;;;;;;25.70;13.13;;;;;;;29.50;62.45;100783.66;5040877;28;70311;-36
2022/10/29 02:24:59;;;;;;;23.80;13.37;;;;;;;29.53;62.75;100787.81;5041196;28;66168;-36
2022/10/29 02:27:29;;;;;;;23.15;12.93;;;;;;;29.48;62.58;100768.72;5037941;28;70276;-36
2022/10/29 02:30:01;;;;;;;17.30;12.88;;;;;;;29.53;62.50;100769.75;5045929;28;66311;-37
2022/10/29 02:32:32;;;;;;;;;;;;;;;29.28;63.45;100784.97;5044862;28;70268;-37
2022/10/29 02:35:04;;;;;;;15.48;12.13;;;;;;;29.64;62.83;100787.16;5043070;28;65980;-38
2022/10/29 02:37:35;;;;;;;20.90;12.80;;;;;;;29.69;62.23;100781.94;5039033;28;69683;-36
2022/10/29 02:40:07;;;;;;;14.90;12.20;;;;;;;29.59;62.61;100759.94;5034514;28;67261;-36
2022/10/29 02:42:37;;;;;;;16.90;12.38;;;;;;;29.77;62.58;100779.00;5033439;28;69899;-37
2022/10/29 02:45:09;;;;;;;23.20;12.98;;;;;;;29.82;62.76;100771.06;5040398;28;66486;-39
2022/10/29 02:47:40;;;;;;;20.88;12.88;;;;;;;29.83;62.80;100767.31;5033220;28;69272;-36
2022/10/29 02:50:11;;;;;;;16.60;12.45;;;;;;;29.88;62.74;100773.97;5037396;28;65780;-36
2022/10/29 02:52:42;;;;;;;17.13;12.27;;;;;;;29.89;62.17;100776.44;5034131;28;70302;-36
2022/10/29 02:55:13;;;;;;;14.85;11.55;;;;;;;29.93;62.31;100766.88;5041842;28;66661;-36
2022/10/29 02:57:45;;;;;;;16.47;11.87;;;;;;;29.90;62.45;100761.06;5045143;28;70199;-37
2022/10/29 03:00:16;;;;;;;16.55;11.80;;;;;;;29.98;62.00;100763.53;5034160;28;65312;-37
2022/10/29 03:02:51;;;;;;;15.67;11.53;;;;;;;30.01;61.94;100760.38;5043182;28;69397;-36
2022/10/29 03:05:23;;;;;;;13.30;10.82;;;;;;;29.91;62.21;100741.09;5033263;28;66330;-38
2022/10/29 03:07:54;;;;;;;13.15;11.00;;;;;;;30.05;61.83;100769.72;5042269;28;70609;-38
2022/10/29 03:10:25;;;;;;;19.08;11.27;;;;;;;30.08;62.28;100769.25;5039281;28;66604;-38
2022/10/29 03:13:00;;;;;;;15.90;11.27;;;;;;;30.09;61.76;100754.72;5041193;28;70430;-38
2022/10/29 03:15:31;;;;;;;13.25;10.55;;;;;;;30.09;61.82;100748.44;5047165;28;66327;-38
2022/10/29 03:18:03;;;;;;;12.35;10.55;;;;;;;30.15;62.10;100745.72;5041720;28;70412;-38
2022/10/29 03:20:34;;;;;;;11.48;10.27;;;;;;;30.19;62.09;100749.63;5047751;28;66667;-37
2022/10/29 03:23:05;;;;;;;11.20;9.88;;;;;;;30.15;61.89;100732.19;5044195;28;69793;-37
2022/10/29 03:25:36;;;;;;;15.25;10.40;;;;;;;30.23;62.09;100734.66;5037453;28;66571;-37
2022/10/29 03:28:07;;;;;;;15.50;8.93;;;;;;;30.23;60.93;100729.25;5039846;28;70299;-37
2022/10/29 03:30:38;;;;;;;14.40;7.57;;;;;;;30.24;60.76;100725.50;5031796;28;66573;-37
2022/10/29 03:33:09;;;;;;;14.00;7.93;;;;;;;30.28;60.83;100720.47;5037413;28;71175;-37
2022/10/29 03:35:40;;;;;;;17.58;7.25;;;;;;;30.20;58.75;100721.53;5048869;28;67027;-37
2022/10/29 03:38:12;;;;;;;12.27;6.70;;;;;;;30.21;58.05;100696.13;5043406;28;70325;-37
2022/10/29 03:40:43;;;;;;;28.38;8.68;;;;;;;30.20;57.44;100678.25;5038759;28;66781;-38
2022/10/29 03:43:18;;;;;;;13.40;8.15;;;;;;;30.34;58.29;100681.72;5029894;28;69742;-37
2022/10/29 03:45:53;;;;;;;;;;;;;;;30.02;59.62;100679.00;5024968;28;65508;-36
2022/10/29 03:48:24;;;;;;;27.65;9.35;;;;;;;30.30;58.33;100685.06;5025234;28;70688;-43
2022/10/29 03:51:06;;;;;;;17.45;9.73;;;;;;;30.41;56.82;100671.63;5034152;28;66171;-36
2022/10/29 03:53:37;;;;;;;18.38;8.93;;;;;;;30.33;58.21;100646.75;5033778;28;69595;-35
2022/10/29 03:56:09;;;;;;;17.15;10.50;;;;;;;30.43;58.76;100674.97;5036988;28;66239;-36
2022/10/29 03:58:49;;;;;;;27.17;10.48;;;;;;;30.50;58.28;100674.88;5039156;28;70320;-37
2022/10/29 04:01:20;;;;;;;23.23;10.20;;;;;;;30.47;57.77;100678.88;5044389;28;65270;-38
2022/10/29 04:03:51;;;;;;;27.23;10.37;;;;;;;30.45;58.36;100666.59;5036983;27;70193;-36
2022/10/29 04:06:22;;;;;;;18.67;10.52;;;;;;;30.54;57.59;100665.28;5039658;28;66413;-36
2022/10/29 04:08:55;;;;;;;18.33;8.07;;;;;;;30.60;55.85;100664.38;5036399;28;69866;-36
2022/10/29 04:11:27;;;;;;;16.95;9.32;;;;;;;30.65;56.72;100656.44;5040774;28;65728;-36
2022/10/29 04:13:58;;;;;;;13.47;8.47;;;;;;;30.66;56.77;100652.66;5036519;28;69901;-36
2022/10/29 04:16:30;;;;;;;13.63;8.48;;;;;;;30.69;55.30;100646.78;5042397;28;66125;-36
2022/10/29 04:19:11;;;;;;;20.90;7.82;;;;;;;30.72;55.36;100640.09;5039460;28;70411;-36
2022/10/29 04:21:42;;;;;;;25.08;8.38;;;;;;;30.72;56.08;100640.09;5030670;28;64266;-37
2022/10/29 04:24:33;;;;;;;25.40;8.27;;;;;;;30.65;56.06;100613.09;5034693;28;69786;-36
2022/10/29 04:27:25;;;;;;;16.90;8.25;;;;;;;30.73;55.99;100620.94;5032499;28;65700;-37
2022/10/29 04:30:16;;;;;;;12.05;8.32;;;;;;;30.75;56.32;100617.16;5034952;28;70075;-38
2022/10/29 04:32:47;;;;;;;12.07;7.03;;;;;;;30.77;54.82;100625.91;5039687;28;66816;-38
2022/10/29 04:35:22;;;;;;;14.48;7.25;;;;;;;30.71;54.16;100606.78;5037533;28;70227;-36
2022/10/29 04:37:56;;;;;;;14.10;7.13;;;;;;;30.87;54.93;100620.78;5035356;28;65212;-36
2022/10/29 04:40:30;;;;;;;16.73;7.72;;;;;;;30.86;55.46;100611.03;5041064;28;70177;-37
2022/10/29 04:43:01;;;;;;;18.33;8.23;;;;;;;30.93;54.86;100619.91;5037644;28;65915;-36
2022/10/29 04:45:32;;;;;;;14.13;7.40;;;;;;;30.93;55.21;100614.50;5036921;28;70926;-38
2022/10/29 04:48:05;;;;;;;10.52;6.72;;;;;;;30.55;54.98;100541.59;5035363;28;67758;-37
2022/10/29 04:50:38;;;;;;;14.60;7.10;;;;;;;31.04;54.44;100605.59;5039644;28;70391;-36
2022/10/29 04:53:09;;;;;;;11.38;7.95;;;;;;;31.08;54.34;100600.53;5038426;28;66951;-38
2022/10/29 04:55:40;;;;;;;14.50;7.47;;;;;;;31.13;55.21;100598.81;5035456;28;70787;-36
2022/10/29 04:58:17;;;;;;;15.50;8.38;;;;;;;31.09;55.84;100577.81;5038212;28;66512;-38
2022/10/29 05:00:48;;;;;;;19.48;7.68;;;;;;;30.94;56.12;100559.25;5031849;28;69019;-37
2022/10/29 05:03:19;;;;;;;18.63;7.13;;;;;;;30.84;55.83;100553.53;5027892;28;66639;-38
2022/10/29 05:06:05;;;;;;;19.80;7.78;;;;;;;30.34;54.81;100488.75;5034553;28;70528;-38
2022/10/29 05:08:36;;;;;;;16.75;7.18;;;;;;;30.73;54.56;100557.84;5033058;28;65879;-38
2022/10/29 05:11:07;;;;;;;12.35;6.00;;;;;;;30.60;53.74;100556.09;5037111;28;70506;-39
2022/10/29 05:13:38;;;;;;;;;;;;;;;30.24;54.42;100556.91;5023681;28;64644;-36
2022/10/29 05:16:09;;;;;;;11.13;5.68;;;;;;;30.43;53.78;100555.88;5034857;28;70447;-38
2022/10/29 05:18:41;;;;;;;15.80;6.57;;;;;;;30.37;53.04;100555.94;5048571;28;66366;-38
2022/10/29 05:21:12;;;;;;;13.57;6.07;;;;;;;30.32;52.79;100548.50;5038679;28;69284;-38
2022/10/29 05:23:43;;;;;;;14.23;6.00;;;;;;;30.30;52.58;100549.78;5035566;28;66247;-38
2022/10/29 05:26:15;;;;;;;9.60;5.68;;;;;;;30.24;51.88;100544.22;5035260;28;70178;-37
2022/10/29 05:28:50;;;;;;;7.63;5.32;;;;;;;30.19;51.78;100532.38;5033950;28;65291;-38
2022/10/29 05:31:21;;;;;;;6.95;4.75;;;;;;;30.16;51.34;100533.66;5039565;28;68715;-38
2022/10/29 05:33:52;;;;;;;10.05;5.03;;;;;;;30.15;51.44;100536.59;5033378;28;66778;-38
2022/10/29 05:36:24;;;;;;;11.23;6.13;;;;;;;30.14;51.19;100519.50;5039918;28;70749;-37
2022/10/29 05:38:55;;;;;;;10.50;4.82;;;;;;;30.06;51.00;100498.16;5040832;28;67180;-38
2022/10/29 05:41:26;;;;;;;9.10;5.18;;;;;;;30.06;51.24;100504.44;5038082;28;70020;-36
2022/10/29 05:43:57;;;;;;;5.78;4.57;;;;;;;30.10;51.17;100496.69;5040547;28;66344;-38
2022/10/29 05:46:29;;;;;;;9.97;4.23;;;;;;;30.01;50.18;100477.22;5038442;28;69197;-38
2022/10/29 05:48:59;;;;;;;9.05;4.57;;;;;;;30.02;50.71;100472.63;5025897;28;67380;-38
2022/10/29 05:51:30;;;;;;;10.30;5.57;;;;;;;30.09;53.42;100473.41;5015172;28;69869;-38
2022/10/29 05:54:04;;;;;;;13.07;5.60;;;;;;;30.12;55.36;100474.84;5034760;27;66409;-38
2022/10/29 05:56:35;;;;;;;6.70;6.10;;;;;;;30.10;55.86;100475.03;5039281;28;70857;-37
2022/10/29 05:59:06;;;;;;;6.33;5.67;;;;;;;30.12;56.44;100470.25;5036011;28;66109;-37
2022/10/29 06:01:38;;;;;;;5.97;5.38;;;;;;;30.12;56.02;100466.72;5038043;28;69280;-38
2022/10/29 06:04:13;;;;;;;8.65;5.45;;;;;;;30.09;56.83;100468.00;5037457;28;65929;-38
2022/10/29 06:06:44;;;;;;;7.18;5.97;;;;;;;30.18;56.34;100463.91;5034258;28;69838;-38
2022/10/29 06:09:15;;;;;;;5.70;5.10;;;;;;;30.14;55.96;100451.06;5028833;28;67436;-38
2022/10/29 06:11:47;;;;;;;5.40;4.90;;;;;;;30.37;55.15;100463.94;5033297;28;70549;-37
2022/10/29 06:14:18;;;;;;;10.57;4.65;;;;;;;30.40;54.63;100447.25;5042412;28;66410;-36
2022/10/29 06:16:48;;;;;;;6.40;4.88;;;;;;;30.57;54.00;100453.69;5031949;28;68728;-38
2022/10/29 06:19:20;;;;;;;11.90;5.03;;;;;;;30.59;54.26;100451.59;5033606;28;66330;-38
2022/10/29 06:21:51;;;;;;;7.30;5.65;;;;;;;30.63;53.51;100444.66;5031651;28;70253;-37
2022/10/29 06:24:28;;;;;;;14.85;5.28;;;;;;;30.56;52.36;100430.38;5020349;28;65723;-37
2022/10/29 06:26:59;;;;;;;5.00;4.53;;;;;;;30.69;52.45;100441.03;5033229;28;69288;-36
2022/10/29 06:29:29;;;;;;;4.82;4.25;;;;;;;30.69;51.90;100435.59;5031777;28;66220;-35
2022/10/29 06:32:00;;;;;;;7.60;4.70;;;;;;;30.73;51.09;100442.22;5023507;28;70061;-35
2022/10/29 06:34:31;;;;;;;8.52;4.88;;;;;;;30.69;50.69;100432.91;5035810;28;66578;-36
2022/10/29 06:37:02;;;;;;;8.07;4.20;;;;;;;30.74;50.27;100437.63;5029913;28;70054;-38
2022/10/29 06:39:33;;;;;;;6.88;4.63;;;;;;;30.72;50.22;100432.44;5036820;28;66797;-36
2022/10/29 06:42:04;;;;;;;6.28;3.63;;;;;;;30.70;49.89;100421.03;5036036;28;69296;-36
2022/10/29 06:44:36;;;;;;;5.53;4.20;;;;;;;30.77;49.41;100428.22;5035564;28;66491;-38
2022/10/29 06:47:07;;;;;;;11.93;4.22;;;;;;;30.77;49.19;100428.22;5031919;28;69350;-38
2022/10/29 06:49:38;;;;;;;6.60;4.25;;;;;;;30.78;49.37;100421.75;5032066;28;67119;-38
2022/10/29 06:52:09;;;;;;;4.70;4.22;;;;;;;30.67;48.88;100399.00;5033531;28;70859;-37
2022/10/29 06:54:40;;;;;;;4.50;4.10;;;;;;;30.82;48.26;100412.16;5029119;28;65567;-37
2022/10/29 06:57:11;;;;;;;21.38;4.55;;;;;;;30.61;48.37;100389.91;5032133;27;69436;-40
2022/10/29 06:59:42;;;;;;;15.25;4.28;;;;;;;30.82;47.99;100407.56;5031370;28;67469;-36
2022/10/29 07:02:13;;;;;;;5.60;3.37;;;;;;;30.84;48.00;100410.03;5033832;28;70212;-36
2022/10/29 07:04:44;;;;;;;4.97;3.83;;;;;;;30.83;46.04;100402.97;5033766;28;66260;-36
2022/10/29 07:07:15;;;;;;;5.93;3.60;;;;;;;30.87;47.06;100394.16;5035606;28;69698;-38
2022/10/29 07:09:47;;;;;;;8.65;3.80;;;;;;;30.87;46.71;100394.16;5043530;28;66151;-38
2022/10/29 07:12:18;;;;;;;14.02;4.97;;;;;;;30.89;46.80;100388.50;5036114;28;69170;-37
2022/10/29 07:14:49;;;;;;;6.13;3.75;;;;;;;30.90;46.51;100387.44;5030027;28;66501;-38
2022/10/29 07:17:20;;;;;;;7.03;3.33;;;;;;;30.89;46.28;100383.06;5037208;28;70179;-38
2022/10/29 07:19:50;;;;;;;3.97;3.38;;;;;;;30.91;45.58;100378.25;5031447;28;65730;-38
2022/10/29 07:22:22;;;;;;;8.77;3.45;;;;;;;30.86;46.23;100381.66;5028120;28;69870;-37
2022/10/29 07:24:53;;;;;;;4.18;3.10;;;;;;;30.88;45.63;100378.72;5032303;28;66715;-38
2022/10/29 07:27:29;;;;;;;4.38;3.70;;;;;;;30.90;45.79;100382.03;5034603;28;70008;-37
2022/10/29 07:30:01;;;;;;;3.30;3.00;;;;;;;30.82;45.60;100366.94;5043708;28;64750;-37
2022/10/29 07:32:32;;;;;;;3.58;2.63;;;;;;;30.91;45.10;100383.66;5035757;28;71184;-38
2022/10/29 07:35:04;;;;;;;4.43;3.33;;;;;;;30.91;44.85;100386.38;5034912;28;64700;-38
2022/10/29 07:37:35;;;;;;;3.73;2.87;;;;;;;30.91;44.34;100383.66;5034950;27;70334;-39
2022/10/29 07:40:06;;;;;;;4.35;2.80;;;;;;;30.91;44.32;100384.50;5034629;28;67001;-37
2022/10/29 07:42:38;;;;;;;3.10;2.42;;;;;;;30.80;44.74;100370.94;5041068;28;70502;-37
2022/10/29 07:45:09;;;;;;;4.32;3.08;;;;;;;30.88;44.12;100394.97;5032367;28;65482;-38
2022/10/29 07:48:11;;;;;;;3.22;2.92;;;;;;;30.76;43.33;100385.94;5033489;28;70166;-37
2022/10/29 07:50:42;;;;;;;4.47;3.17;;;;;;;30.35;44.30;100309.94;5034516;28;66242;-38
2022/10/29 07:53:13;;;;;;;5.25;3.13;;;;;;;30.81;44.08;100380.69;5033404;28;71436;-37
2022/10/29 07:55:50;;;;;;;5.15;3.13;;;;;;;30.83;44.22;100381.31;5036273;28;65558;-39
2022/10/29 07:58:23;;;;;;;3.25;2.92;;;;;;;30.86;43.56;100392.47;5034204;28;70247;-36
2022/10/29 08:00:54;;;;;;;9.02;3.60;;;;;;;31.00;46.13;100392.28;5034038;28;65232;-36
2022/10/29 08:03:25;;;;;;;18.27;5.50;;;;;;;30.86;51.46;100389.78;5032547;28;70112;-36
2022/10/29 08:05:59;;;;;;;19.52;6.25;;;;;;;30.89;54.87;100392.00;5040450;28;66662;-37
2022/10/29 08:08:33;;;;;;;23.10;6.72;;;;;;;30.94;56.80;100383.22;5040265;28;68223;-37
2022/10/29 08:11:07;;;;;;;27.05;7.25;;;;;;;31.03;57.32;100387.22;5029967;28;65756;-38
2022/10/29 08:13:39;;;;;;;12.15;7.25;;;;;;;31.00;59.06;100382.25;5023503;28;69309;-37
2022/10/29 08:16:10;;;;;;;19.87;7.27;;;;;;;31.06;59.74;100375.09;5023530;27;66395;-36
2022/10/29 08:18:41;;;;;;;20.40;8.10;;;;;;;31.07;60.79;100371.34;5028003;28;70249;-39
2022/10/29 08:21:12;;;;;;;13.35;7.82;;;;;;;31.12;60.31;100369.59;5033281;28;65415;-37
2022/10/29 08:23:44;;;;;;;15.18;6.80;;;;;;;31.09;59.88;100370.06;5030934;28;69690;-37
2022/10/29 08:26:19;;;;;;;24.33;8.25;;;;;;;31.22;59.86;100396.06;5028789;28;66649;-39
2022/10/29 08:28:50;;;;;;;21.27;8.15;;;;;;;31.26;59.50;100396.44;5024759;28;69996;-39
2022/10/29 08:31:21;;;;;;;8.45;6.63;;;;;;;31.26;59.73;100401.84;5033903;28;67204;-39
2022/10/29 08:33:52;;;;;;;16.73;6.53;;;;;;;31.23;62.18;100407.75;5031402;28;71151;-38
2022/10/29 08:36:24;;;;;;;13.68;7.60;;;;;;;31.19;62.10;100412.00;5058811;28;66166;-39
2022/10/29 08:38:55;;;;;;;17.27;8.80;;;;;;;31.20;63.59;100408.22;5042568;28;70064;-39
2022/10/29 08:41:51;;;;;;;19.37;8.77;;;;;;;30.62;64.28;100329.31;5033522;28;67496;-38
2022/10/29 08:45:02;;;;;;;15.43;9.05;;;;;;;31.15;65.26;100407.03;5030113;28;68946;-39
2022/10/29 08:47:58;;;;;;;16.90;9.53;;;;;;;30.70;66.08;100326.28;5034536;28;65008;-39
2022/10/29 08:50:40;;;;;;;20.20;10.20;;;;;;;31.15;66.82;100392.69;5038259;28;69537;-40
2022/10/29 08:53:23;;;;;;;18.80;10.10;;;;;;;30.94;67.54;100353.41;5028947;28;66804;-39
2022/10/29 08:55:59;;;;;;;33.20;12.55;;;;;;;31.29;67.83;100387.84;5031700;28;70334;-39
2022/10/29 08:59:11;;;;;;;30.67;11.93;;;;;;;31.22;68.96;100396.06;5029620;28;66101;-38
2022/10/29 09:01:43;;;;;;;39.17;12.90;;;;;;;31.26;66.98;100385.59;5033945;28;69692;-38
2022/10/29 09:04:27;;;;;;;22.80;11.18;;;;;;;31.33;67.85;100397.16;5039284;28;64103;-39
2022/10/29 09:07:17;;;;;;;27.15;12.18;;;;;;;31.24;70.02;100404.00;5035982;28;69808;-39
2022/10/29 09:10:16;;;;;;;22.10;12.35;;;;;;;31.25;69.89;100408.34;5048950;28;65543;-39
2022/10/29 09:13:17;;;;;;;42.63;14.18;;;;;;;31.32;68.59;100406.34;5037359;28;69593;-39
2022/10/29 09:16:29;;;;;;;34.97;13.37;;;;;;;31.26;68.89;100412.69;5032619;28;67024;-38
2022/10/29 09:19:39;;;;;;;32.33;13.30;;;;;;;31.14;69.52;100397.25;5029535;28;70521;-39
2022/10/29 09:22:25;;;;;;;44.75;16.10;;;;;;;31.36;69.48;100402.13;5031210;28;67204;-39
2022/10/29 09:25:20;;;;;;;40.78;14.82;;;;;;;31.30;69.67;100413.88;5031934;28;70507;-39
2022/10/29 09:28:32;;;;;;;35.47;13.82;;;;;;;31.26;69.33;100418.97;5033776;28;65490;-38
2022/10/29 09:31:26;;;;;;;39.40;12.38;;;;;;;31.37;67.70;100418.16;5026464;28;69791;-39
2022/10/29 09:34:04;;;;;;;26.33;10.65;;;;;;;30.95;67.40;100349.63;5039292;28;66600;-39
2022/10/29 09:36:39;;;;;;;35.08;11.20;;;;;;;31.39;67.35;100426.06;5042629;28;70128;-38
2022/10/29 09:39:21;;;;;;;34.85;11.60;;;;;;;31.41;67.05;100426.66;5034426;28;66558;-39
2022/10/29 09:42:08;;;;;;;21.45;10.30;;;;;;;31.38;65.85;100421.69;5032428;28;69812;-39
2022/10/29 09:44:54;;;;;;;23.98;10.65;;;;;;;31.39;66.69;100424.16;5036861;28;43025;-39
2022/10/29 09:47:35;;;;;;;35.83;11.98;;;;;;;30.92;66.34;100358.22;5036220;28;70014;-40
2022/10/29 09:50:34;;;;;;;26.55;11.70;;;;;;;31.33;66.72;100438.63;5042383;28;66507;-40
2022/10/29 09:53:07;;;;;;;34.15;12.05;;;;;;;31.35;66.31;100427.56;5037977;28;70298;-39
2022/10/29 09:55:42;;;;;;;28.38;11.32;;;;;;;30.98;66.11;100367.31;5039017;28;66048;-39
2022/10/29 09:58:27;;;;;;;37.78;12.98;;;;;;;31.45;66.16;100438.66;5032912;28;70434;-39
2022/10/29 10:00:58;;;;;;;32.88;12.05;;;;;;;31.41;65.65;100442.91;5028938;28;66575;-38
2022/10/29 10:03:37;;;;;;;24.00;11.00;;;;;;;31.03;65.93;100400.75;5029781;28;70518;-39
2022/10/29 10:06:11;;;;;;;31.48;11.75;;;;;;;30.53;66.42;100325.28;5036980;28;65835;-39
2022/10/29 10:08:59;;;;;;;15.30;10.82;;;;;;;31.28;66.36;100475.63;5034819;28;69327;-41
2022/10/29 10:11:53;;;;;;;28.73;12.82;;;;;;;31.23;67.42;100472.78;5047655;28;66583;-39
2022/10/29 10:14:26;;;;;;;23.00;13.73;;;;;;;31.06;67.23;100435.50;5028795;28;70106;-39
2022/10/29 10:17:02;;;;;;;21.58;12.77;;;;;;;31.27;67.82;100473.97;5030427;28;66144;-39
2022/10/29 10:19:33;;;;;;;23.95;15.13;;;;;;;31.16;67.46;100471.00;5029690;28;69776;-38
2022/10/29 10:22:15;;;;;;;28.75;14.70;;;;;;;31.23;68.61;100489.03;5026731;28;66065;-39
2022/10/29 10:24:46;;;;;;;28.55;15.23;;;;;;;31.19;69.52;100482.44;5029950;28;69309;-48
2022/10/29 10:27:17;;;;;;;22.05;14.40;;;;;;;31.17;69.59;100496.19;5029048;28;66779;-40
2022/10/29 10:30:03;;;;;;;23.08;12.63;;;;;;;31.05;69.21;100493.47;5045397;28;69173;-38
2022/10/29 10:32:34;;;;;;;26.83;13.02;;;;;;;30.99;70.08;100478.13;5053718;28;65863;-37
2022/10/29 10:35:29;;;;;;;26.73;12.23;;;;;;;31.21;69.77;100485.75;5039762;28;71561;-39
2022/10/29 10:38:07;;;;;;;22.80;11.20;;;;;;;31.42;68.38;100493.34;5035562;28;65745;-40
2022/10/29 10:40:40;;;;;;;18.90;11.73;;;;;;;31.51;67.75;100486.53;5041079;28;68566;-40
2022/10/29 10:43:22;;;;;;;17.77;11.40;;;;;;;31.52;68.37;100488.19;5039334;28;65726;-43
2022/10/29 10:46:03;;;;;;;17.48;11.35;;;;;;;31.12;67.93;100410.22;5038150;28;70193;-40
2022/10/29 10:48:34;;;;;;;15.15;11.82;;;;;;;31.65;66.84;100494.44;5030550;28;66646;-39
2022/10/29 10:51:25;;;;;;;19.58;12.05;;;;;;;31.59;67.69;100499.75;5038022;28;70279;-39
2022/10/29 10:54:02;;;;;;;12.60;10.80;;;;;;;31.70;67.01;100497.25;5037040;28;65711;-38
2022/10/29 10:56:55;;;;;;;16.45;11.30;;;;;;;31.15;68.10;100428.72;5044101;28;70587;-38
2022/10/29 10:59:42;;;;;;;15.40;11.23;;;;;;;31.65;67.77;100492.56;5041906;28;66380;-38
2022/10/29 11:02:27;;;;;;;12.10;10.82;;;;;;;31.63;67.73;100493.84;5042708;28;70038;-38
2022/10/29 11:05:20;;;;;;;16.13;11.63;;;;;;;31.77;67.14;100506.13;5041855;28;66177;-38
2022/10/29 11:08:11;;;;;;;14.93;12.00;;;;;;;31.25;68.23;100421.88;5043655;28;70417;-39
2022/10/29 11:11:10;;;;;;;15.25;11.13;;;;;;;31.59;68.54;100491.63;5039912;28;66307;-40
2022/10/29 11:13:43;;;;;;;16.42;10.98;;;;;;;31.71;67.13;100482.66;5039566;28;69778;-39
2022/10/29 11:16:40;;;;;;;13.30;11.40;;;;;;;31.66;67.84;100493.38;5036267;28;65630;-38
2022/10/29 11:19:28;;;;;;;19.08;12.20;;;;;;;31.64;67.54;100479.22;5036070;28;70398;-38
2022/10/29 11:22:25;;;;;;;17.55;11.90;;;;;;;31.66;67.68;100488.78;5035814;28;65622;-39
2022/10/29 11:25:02;;;;;;;14.55;10.75;;;;;;;31.74;66.92;100490.31;5033413;28;69265;-38
2022/10/29 11:27:48;;;;;;;11.57;10.38;;;;;;;31.69;67.16;100490.19;5039253;28;66195;-38
2022/10/29 11:30:20;;;;;;;12.38;11.05;;;;;;;31.74;66.60;100502.00;5030511;28;69784;-38
2022/10/29 11:33:09;;;;;;;14.77;11.27;;;;;;;30.94;70.82;100421.13;5040879;28;66238;-38
2022/10/29 11:35:58;;;;;;;11.50;10.40;;;;;;;31.24;72.41;100479.84;5029058;28;70170;-37
2022/10/29 11:38:51;;;;;;;13.68;11.05;;;;;;;31.28;72.77;100508.13;5033053;28;66341;-38
2022/10/29 11:41:43;;;;;;;13.73;9.85;;;;;;;31.14;73.96;100508.31;5038313;28;69251;-39
2022/10/29 11:44:20;;;;;;;12.48;11.05;;;;;;;31.12;74.07;100515.88;5030741;28;66222;-39
2022/10/29 11:47:23;;;;;;;18.48;11.55;;;;;;;30.99;74.88;100521.47;5034619;28;69987;-39
2022/10/29 11:49:55;;;;;;;18.25;11.38;;;;;;;31.07;74.60;100518.44;5031766;28;65104;-37
2022/10/29 11:53:00;;;;;;;13.35;11.65;;;;;;;31.01;74.84;100535.63;5033044;28;71017;-41
2022/10/29 11:55:41;;;;;;;12.10;10.90;;;;;;;31.03;74.93;100532.66;5027451;28;65042;-37
2022/10/29 11:58:32;;;;;;;11.93;10.73;;;;;;;31.01;74.85;100532.06;5030987;28;69618;-38
2022/10/29 12:01:40;;;;;;;13.70;11.90;;;;;;;30.81;75.04;100543.16;5030667;28;67361;-40